createdAt,value
2022-10-05T00:04:05.566Z,13.5986328125
2022-10-05T00:14:05.450Z,13.4033203125
2022-10-05T00:24:05.388Z,12.200927734375
2022-10-05T00:34:05.298Z,10.400390625
2022-10-05T00:44:05.235Z,9.100341796875
2022-10-05T00:54:05.159Z,9.4970703125
2022-10-05T01:04:05.087Z,9.89990234375
2022-10-05T01:14:05.033Z,9.002685546875
2022-10-05T01:24:04.947Z,9.197998046875
2022-10-05T01:34:09.134Z,9.4970703125
2022-10-05T01:44:04.807Z,9.3017578125
2022-10-05T01:54:04.728Z,8.80126953125
2022-10-05T02:04:04.650Z,8.502197265625
2022-10-05T02:14:04.606Z,8.197021484375
2022-10-05T02:24:04.631Z,7.89794921875
2022-10-05T02:34:04.436Z,7.80029296875
2022-10-05T02:44:04.386Z,7.89794921875
2022-10-05T02:54:04.316Z,7.89794921875
2022-10-05T03:04:04.237Z,7.598876953125
2022-10-05T03:14:04.179Z,7.3974609375
2022-10-05T03:24:04.108Z,7.501220703125
2022-10-05T03:34:04.030Z,7.70263671875
2022-10-05T03:44:03.977Z,8.099365234375
2022-10-05T03:54:03.901Z,8.80126953125
2022-10-05T04:04:03.818Z,8.3984375
2022-10-05T04:14:03.871Z,8.30078125
2022-10-05T04:24:03.688Z,8.3984375
2022-10-05T04:34:03.725Z,8.502197265625
2022-10-05T04:44:03.562Z,8.599853515625
2022-10-05T04:54:03.480Z,8.3984375
2022-10-05T05:04:03.479Z,8.197021484375
2022-10-05T05:14:03.324Z,8.099365234375
2022-10-05T05:24:03.258Z,8.197021484375
2022-10-05T05:34:03.204Z,8.197021484375
2022-10-05T05:44:03.149Z,7.70263671875
2022-10-05T05:54:03.169Z,7.80029296875
2022-10-05T06:04:03.008Z,7.70263671875
2022-10-05T06:14:02.907Z,7.3974609375
2022-10-05T06:24:02.852Z,7.2021484375
2022-10-05T06:34:02.785Z,7.098388671875
2022-10-05T06:44:02.805Z,7.000732421875
2022-10-05T06:54:02.643Z,6.70166015625
2022-10-05T07:04:02.576Z,6.500244140625
2022-10-05T07:14:02.510Z,6.500244140625
2022-10-05T07:24:02.427Z,6.500244140625
2022-10-05T07:34:02.364Z,6.500244140625
2022-10-05T07:44:03.333Z,6.201171875
2022-10-05T07:54:02.218Z,6.1004638671875
2022-10-05T08:04:02.167Z,6.1004638671875
2022-10-05T08:14:02.104Z,5.999755859375
2022-10-05T08:24:02.032Z,5.999755859375
2022-10-05T08:34:01.957Z,5.8013916015625
2022-10-05T08:44:01.888Z,5.70068359375
2022-10-05T08:54:01.829Z,5.5999755859375
2022-10-05T09:04:01.773Z,5.499267578125
2022-10-05T09:14:01.689Z,5.499267578125
2022-10-05T09:24:01.614Z,5.3985595703125
2022-10-05T09:34:01.557Z,5.3985595703125
2022-10-05T09:44:01.513Z,5.3985595703125
2022-10-05T09:54:01.416Z,5.3009033203125
2022-10-05T10:04:01.421Z,5.3009033203125
2022-10-05T10:14:01.577Z,5.3009033203125
2022-10-05T10:24:01.321Z,5.5999755859375
2022-10-05T10:34:01.234Z,3.900146484375
2022-10-05T10:44:01.101Z,3.60107421875
2022-10-05T10:54:01.038Z,3.60107421875
2022-10-05T11:04:01.106Z,3.69873046875
2022-10-05T11:14:00.914Z,3.7994384765625
2022-10-05T11:24:00.815Z,3.69873046875
2022-10-05T11:34:00.728Z,3.7994384765625
2022-10-05T11:44:06.048Z,4.0008544921875
2022-10-05T11:54:00.625Z,4.0008544921875
2022-10-05T12:04:00.669Z,4.0008544921875
2022-10-05T12:14:00.462Z,3.900146484375
2022-10-05T12:24:00.434Z,4.0008544921875
2022-10-05T12:34:00.327Z,4.0008544921875
2022-10-05T12:44:00.353Z,4.0985107421875
2022-10-05T12:54:00.195Z,3.900146484375
2022-10-05T13:04:00.137Z,3.7994384765625
2022-10-05T13:14:00.089Z,3.900146484375
2022-10-05T13:24:00.004Z,4.0008544921875
2022-10-05T13:34:00.070Z,3.69873046875
2022-10-05T13:43:59.875Z,3.69873046875
2022-10-05T13:53:59.805Z,3.7994384765625
2022-10-05T14:03:59.738Z,3.5003662109375
2022-10-05T14:13:59.660Z,3.69873046875
2022-10-05T14:23:59.619Z,3.69873046875
2022-10-05T14:33:59.526Z,3.5003662109375
2022-10-05T14:43:59.445Z,3.5003662109375
2022-10-05T14:53:59.398Z,3.5003662109375
2022-10-05T15:03:59.344Z,3.2989501953125
2022-10-05T15:13:59.392Z,3.5003662109375
2022-10-05T15:23:59.197Z,3.5003662109375
2022-10-05T15:33:59.146Z,3.5003662109375
2022-10-05T15:43:59.072Z,3.399658203125
2022-10-05T15:54:02.383Z,3.5003662109375
2022-10-05T16:03:58.936Z,3.399658203125
2022-10-05T16:23:58.817Z,3.399658203125
2022-10-05T16:33:58.773Z,3.2989501953125
2022-10-05T16:43:58.707Z,3.5003662109375
2022-10-05T16:53:58.627Z,3.399658203125
2022-10-05T17:03:58.538Z,3.5003662109375
2022-10-05T17:13:58.485Z,3.399658203125
2022-10-05T17:23:58.579Z,3.399658203125
2022-10-05T17:33:58.363Z,3.5003662109375
2022-10-05T17:43:58.294Z,3.5003662109375
2022-10-05T17:53:58.233Z,3.399658203125
2022-10-05T18:03:58.188Z,3.69873046875
2022-10-05T18:13:58.102Z,3.60107421875
2022-10-05T18:23:58.017Z,3.60107421875
2022-10-05T18:33:57.975Z,3.5003662109375
2022-10-05T18:43:57.900Z,3.900146484375
2022-10-05T18:53:57.829Z,4.0008544921875
2022-10-05T19:03:57.763Z,4.0008544921875
2022-10-05T19:13:57.796Z,4.19921875
2022-10-05T19:23:57.636Z,4.0985107421875
2022-10-05T19:33:57.588Z,4.19921875
2022-10-05T19:43:57.519Z,4.2999267578125
2022-10-05T19:53:57.439Z,4.69970703125
2022-10-05T20:03:57.389Z,4.998779296875
2022-10-05T20:13:57.302Z,4.69970703125
2022-10-05T20:23:57.246Z,4.5989990234375
2022-10-05T20:33:57.170Z,4.998779296875
2022-10-05T20:43:57.111Z,5.0994873046875
2022-10-05T20:53:57.183Z,5.3985595703125
2022-10-05T21:03:56.991Z,5.5999755859375
2022-10-05T21:13:56.900Z,5.5999755859375
2022-10-05T21:23:56.849Z,5.8013916015625
2022-10-05T21:33:56.772Z,6.89697265625
2022-10-05T21:43:56.690Z,6.597900390625
2022-10-05T21:53:56.651Z,6.402587890625
2022-10-05T22:03:56.570Z,7.2998046875
2022-10-05T22:13:56.622Z,7.70263671875
2022-10-05T22:23:56.430Z,8.001708984375
2022-10-05T22:33:56.448Z,8.502197265625
2022-10-05T22:43:56.284Z,9.80224609375
2022-10-05T22:53:56.198Z,8.3984375
2022-10-05T23:03:56.155Z,9.89990234375
2022-10-05T23:13:56.195Z,11.4013671875
2022-10-05T23:23:55.992Z,10.302734375
2022-10-05T23:33:55.917Z,12.200927734375
2022-10-05T23:43:55.850Z,12.80517578125
2022-10-05T23:53:55.797Z,13.7939453125
